createdAt,value
2024-02-06T00:02:17.910Z,-2.86
2024-02-06T00:04:45.394Z,-2.89
2024-02-06T00:07:20.347Z,-2.89
2024-02-06T00:09:56.043Z,-2.88
2024-02-06T00:12:23.560Z,-2.87
2024-02-06T00:14:54.872Z,-2.88
2024-02-06T00:17:22.496Z,-2.83
2024-02-06T00:19:50.154Z,-2.76
2024-02-06T00:22:17.431Z,-2.75
2024-02-06T00:24:44.774Z,-2.78
2024-02-06T00:27:12.164Z,-2.77
2024-02-06T00:29:39.480Z,-2.79
2024-02-06T00:32:08.959Z,-2.87
2024-02-06T00:34:36.295Z,-2.87
2024-02-06T00:37:03.843Z,-2.89
2024-02-06T00:39:32.092Z,-2.96
2024-02-06T00:41:59.394Z,-2.94
2024-02-06T00:44:26.827Z,-2.92
2024-02-06T00:46:55.070Z,-2.91
2024-02-06T00:49:23.870Z,-2.92
2024-02-06T00:51:51.343Z,-2.94
2024-02-06T00:54:18.583Z,-2.93
2024-02-06T00:56:45.861Z,-2.94
2024-02-06T00:59:13.151Z,-2.98
2024-02-06T01:01:40.757Z,-3.00
2024-02-06T01:04:08.222Z,-3.06
2024-02-06T01:06:36.942Z,-3.02
2024-02-06T01:09:04.682Z,-3.06
2024-02-06T01:11:32.528Z,-3.03
2024-02-06T01:13:59.881Z,-3.04
2024-02-06T01:16:27.226Z,-3.07
2024-02-06T01:18:54.640Z,-3.08
2024-02-06T01:21:22.068Z,-3.07
2024-02-06T01:23:50.766Z,-3.05
2024-02-06T01:26:18.107Z,-3.02
2024-02-06T01:28:47.174Z,-3.06
2024-02-06T01:31:15.102Z,-3.08
2024-02-06T01:33:43.074Z,-3.09
2024-02-06T01:36:10.325Z,-3.06
2024-02-06T01:38:37.674Z,-3.07
2024-02-06T01:41:06.406Z,-3.03
2024-02-06T01:43:33.823Z,-3.00
2024-02-06T01:46:01.635Z,-2.94
2024-02-06T01:48:30.508Z,-2.92
2024-02-06T01:50:58.248Z,-2.94
2024-02-06T01:53:27.276Z,-2.92
2024-02-06T01:55:55.011Z,-2.96
2024-02-06T01:58:24.594Z,-2.99
2024-02-06T02:00:52.835Z,-3.01
2024-02-06T02:03:21.364Z,-3.01
2024-02-06T02:05:49.358Z,-2.93
2024-02-06T02:08:18.208Z,-2.94
2024-02-06T02:10:45.685Z,-3.00
2024-02-06T02:13:13.275Z,-3.01
2024-02-06T02:15:42.431Z,-3.05
2024-02-06T02:18:10.454Z,-3.10
2024-02-06T02:20:37.873Z,-3.06
2024-02-06T02:23:15.810Z,-3.06
2024-02-06T02:25:50.959Z,-3.10
2024-02-06T02:28:18.600Z,-3.09
2024-02-06T02:30:47.033Z,-3.12
2024-02-06T02:33:15.562Z,-3.13
2024-02-06T02:35:43.225Z,-3.15
2024-02-06T02:38:11.918Z,-3.17
2024-02-06T02:40:39.266Z,-3.19
2024-02-06T02:43:06.872Z,-3.17
2024-02-06T02:45:34.443Z,-3.24
2024-02-06T02:48:01.990Z,-3.24
2024-02-06T02:50:29.587Z,-3.25
2024-02-06T02:52:56.885Z,-3.22
2024-02-06T02:55:25.622Z,-3.18
2024-02-06T02:57:53.085Z,-3.15
2024-02-06T03:00:21.665Z,-3.09
2024-02-06T03:02:49.010Z,-3.09
2024-02-06T03:05:16.385Z,-3.14
2024-02-06T03:07:43.769Z,-3.15
2024-02-06T03:10:11.142Z,-3.16
2024-02-06T03:12:39.866Z,-3.17
2024-02-06T03:15:08.277Z,-3.15
2024-02-06T03:17:35.640Z,-3.11
2024-02-06T03:20:06.287Z,-3.12
2024-02-06T03:22:34.078Z,-3.13
2024-02-06T03:25:01.675Z,-3.12
2024-02-06T03:27:32.555Z,-3.14
2024-02-06T03:30:03.692Z,-3.12
2024-02-06T03:32:32.340Z,-3.14
2024-02-06T03:35:00.845Z,-3.13
2024-02-06T03:37:31.750Z,-3.12
2024-02-06T03:39:59.170Z,-3.06
2024-02-06T03:42:26.528Z,-3.03
2024-02-06T03:44:53.704Z,-2.99
2024-02-06T03:47:22.365Z,-2.93
2024-02-06T03:49:49.835Z,-2.93
2024-02-06T03:52:17.497Z,-2.87
2024-02-06T03:54:45.029Z,-2.86
2024-02-06T03:57:12.424Z,-2.89
2024-02-06T03:59:41.048Z,-2.90
2024-02-06T04:02:08.411Z,-2.92
2024-02-06T04:04:37.289Z,-2.94
2024-02-06T04:07:04.996Z,-2.94
2024-02-06T04:09:32.261Z,-2.94
2024-02-06T04:11:59.599Z,-2.95
2024-02-06T04:14:27.743Z,-2.97
2024-02-06T04:16:56.155Z,-2.99
2024-02-06T04:19:24.003Z,-3.00
2024-02-06T04:21:53.082Z,-3.00
2024-02-06T04:24:20.858Z,-3.01
2024-02-06T04:26:48.183Z,-3.05
2024-02-06T04:29:15.656Z,-3.09
2024-02-06T04:31:43.207Z,-3.09
2024-02-06T04:34:10.942Z,-3.11
2024-02-06T04:36:38.642Z,-3.11
2024-02-06T04:39:07.507Z,-3.14
2024-02-06T04:41:36.393Z,-3.12
2024-02-06T04:44:03.883Z,-3.12
2024-02-06T04:46:31.742Z,-3.10
2024-02-06T04:49:01.553Z,-3.14
2024-02-06T04:51:30.593Z,-3.12
2024-02-06T04:53:58.278Z,-3.10
2024-02-06T04:56:26.995Z,-3.10
2024-02-06T04:58:54.263Z,-3.09
2024-02-06T05:01:22.349Z,-3.10
2024-02-06T05:03:49.998Z,-3.13
2024-02-06T05:06:17.748Z,-3.15
2024-02-06T05:08:45.470Z,-3.18
2024-02-06T05:11:13.906Z,-3.17
2024-02-06T05:13:44.119Z,-3.18
2024-02-06T05:16:11.529Z,-3.18
2024-02-06T05:18:39.057Z,-3.14
2024-02-06T05:21:06.638Z,-3.10
2024-02-06T05:23:33.874Z,-3.06
2024-02-06T05:26:01.195Z,-3.03
2024-02-06T05:28:28.531Z,-2.97
2024-02-06T05:30:58.080Z,-2.92
2024-02-06T05:33:25.573Z,-2.91
2024-02-06T05:35:52.990Z,-2.89
2024-02-06T05:38:20.351Z,-2.87
2024-02-06T05:40:47.772Z,-2.87
2024-02-06T05:43:15.182Z,-2.90
2024-02-06T05:45:42.593Z,-2.91
2024-02-06T05:48:11.782Z,-2.91
2024-02-06T05:50:39.950Z,-2.94
2024-02-06T05:53:07.449Z,-2.92
2024-02-06T05:55:35.037Z,-2.90
2024-02-06T05:58:02.380Z,-2.90
2024-02-06T06:00:29.882Z,-2.90
2024-02-06T06:02:57.195Z,-2.91
2024-02-06T06:05:26.318Z,-2.92
2024-02-06T06:07:53.850Z,-2.96
2024-02-06T06:10:21.263Z,-2.96
2024-02-06T06:12:48.669Z,-2.92
2024-02-06T06:15:16.691Z,-2.91
2024-02-06T06:17:44.312Z,-2.84
2024-02-06T06:20:11.801Z,-2.84
2024-02-06T06:22:41.075Z,-2.83
2024-02-06T06:25:08.889Z,-2.84
2024-02-06T06:27:38.895Z,-2.83
2024-02-06T06:30:10.503Z,-2.79
2024-02-06T06:32:39.129Z,-2.79
2024-02-06T06:35:07.124Z,-2.80
2024-02-06T06:37:38.821Z,-2.80
2024-02-06T06:40:09.481Z,-2.80
2024-02-06T06:42:37.182Z,-2.68
2024-02-06T06:45:05.518Z,-2.57
2024-02-06T06:47:33.757Z,-2.55
2024-02-06T06:50:01.267Z,-2.59
2024-02-06T06:52:33.203Z,-2.66
2024-02-06T06:55:00.777Z,-2.66
2024-02-06T06:57:29.581Z,-2.66
2024-02-06T06:59:56.952Z,-2.63
2024-02-06T07:02:24.881Z,-2.63
2024-02-06T07:04:52.317Z,-2.62
2024-02-06T07:07:19.625Z,-2.70
2024-02-06T07:09:47.225Z,-2.73
2024-02-06T07:12:14.517Z,-2.74
2024-02-06T07:14:43.801Z,-2.72
2024-02-06T07:17:11.988Z,-2.68
2024-02-06T07:19:39.595Z,-2.64
2024-02-06T07:22:07.295Z,-2.68
2024-02-06T07:24:35.248Z,-2.62
2024-02-06T07:27:02.652Z,-2.51
2024-02-06T07:29:30.856Z,-2.44
2024-02-06T07:31:59.664Z,-2.29
2024-02-06T07:34:27.128Z,-2.26
2024-02-06T07:36:54.971Z,-2.32
2024-02-06T07:39:23.001Z,-2.37
2024-02-06T07:41:50.395Z,-2.38
2024-02-06T07:44:17.724Z,-2.39
2024-02-06T07:46:45.052Z,-2.42
2024-02-06T07:49:14.064Z,-2.45
2024-02-06T07:51:41.808Z,-2.38
2024-02-06T07:54:09.200Z,-2.32
2024-02-06T07:56:37.648Z,-2.26
2024-02-06T07:59:05.518Z,-2.28
2024-02-06T08:01:32.977Z,-2.20
2024-02-06T08:04:04.069Z,-2.12
2024-02-06T08:06:34.312Z,-2.01
2024-02-06T08:09:01.872Z,-2.10
2024-02-06T08:11:29.193Z,-2.10
2024-02-06T08:13:56.747Z,-2.05
2024-02-06T08:16:24.213Z,-2.03
2024-02-06T08:18:51.775Z,-2.00
2024-02-06T08:21:19.123Z,-1.94
2024-02-06T08:23:47.959Z,-1.90
2024-02-06T08:26:15.254Z,-1.94
2024-02-06T08:28:42.748Z,-1.89
2024-02-06T08:31:10.827Z,-1.84
2024-02-06T08:33:38.385Z,-1.81
2024-02-06T08:36:06.227Z,-1.86
2024-02-06T08:38:34.541Z,-1.83
2024-02-06T08:41:04.130Z,-1.83
2024-02-06T08:43:42.367Z,-1.82
2024-02-06T08:46:17.348Z,-1.84
2024-02-06T08:48:45.109Z,-1.82
2024-02-06T08:51:12.595Z,-1.82
2024-02-06T08:53:40.375Z,-1.80
2024-02-06T08:56:09.149Z,-1.91
2024-02-06T08:58:36.676Z,-1.95
2024-02-06T09:01:04.489Z,-1.97
2024-02-06T09:03:32.077Z,-1.97
2024-02-06T09:05:59.893Z,-1.92
2024-02-06T09:08:27.767Z,-1.79
2024-02-06T09:10:55.078Z,-1.61
2024-02-06T09:13:25.809Z,-1.52
2024-02-06T09:15:53.495Z,-1.48
2024-02-06T09:18:21.644Z,-1.34
2024-02-06T09:20:49.754Z,-1.28
2024-02-06T09:23:17.108Z,-1.25
2024-02-06T09:25:45.240Z,-1.15
2024-02-06T09:28:13.233Z,-1.11
2024-02-06T09:30:42.466Z,-1.10
2024-02-06T09:33:09.906Z,-1.12
2024-02-06T09:35:37.440Z,-1.01
2024-02-06T09:38:06.537Z,-1.00
2024-02-06T09:40:34.782Z,-1.21
2024-02-06T09:43:04.419Z,-1.34
2024-02-06T09:45:32.876Z,-1.32
2024-02-06T09:48:01.817Z,-1.25
2024-02-06T09:50:29.204Z,-1.29
2024-02-06T09:53:01.328Z,-1.35
2024-02-06T09:55:30.093Z,-1.38
2024-02-06T09:57:59.359Z,-1.46
2024-02-06T10:00:28.538Z,-1.48
2024-02-06T10:03:00.629Z,-1.45
2024-02-06T10:05:34.748Z,-1.35
2024-02-06T10:08:02.884Z,-1.28
2024-02-06T10:10:32.094Z,-1.24
2024-02-06T10:13:01.099Z,-1.35
2024-02-06T10:15:30.019Z,-1.37
2024-02-06T10:17:57.854Z,-1.37
2024-02-06T10:20:25.350Z,-1.38
2024-02-06T10:22:54.378Z,-1.41
2024-02-06T10:25:21.839Z,-1.36
2024-02-06T10:27:58.046Z,-1.26
2024-02-06T10:30:25.445Z,-1.25
2024-02-06T10:32:53.221Z,-1.28
2024-02-06T10:35:23.789Z,-1.25
2024-02-06T10:37:51.635Z,-1.14
2024-02-06T10:40:22.575Z,-1.18
2024-02-06T10:45:21.645Z,-1.22
2024-02-06T10:47:57.767Z,-1.22
2024-02-06T10:50:25.470Z,-1.20
2024-02-06T10:52:53.010Z,-1.14
2024-02-06T10:55:23.636Z,-1.19
2024-02-06T10:58:01.741Z,-1.30
2024-02-06T11:00:33.677Z,-1.41
2024-02-06T11:03:04.614Z,-1.43
2024-02-06T11:05:39.240Z,-1.53
2024-02-06T11:08:09.586Z,-1.65
2024-02-06T11:10:43.293Z,-1.66
2024-02-06T11:13:15.085Z,-1.73
2024-02-06T11:15:45.002Z,-1.78
2024-02-06T11:18:14.971Z,-1.80
2024-02-06T11:20:45.909Z,-1.80
2024-02-06T11:23:19.731Z,-1.80
2024-02-06T11:25:50.267Z,-1.76
2024-02-06T11:28:18.505Z,-1.70
2024-02-06T11:30:47.625Z,-1.68
2024-02-06T11:33:16.385Z,-1.64
2024-02-06T11:35:44.400Z,-1.66
2024-02-06T11:38:13.586Z,-1.65
2024-02-06T11:40:43.018Z,-1.67
2024-02-06T11:45:43.397Z,-1.63
2024-02-06T11:48:13.063Z,-1.66
2024-02-06T11:50:43.510Z,-1.70
2024-02-06T11:53:18.849Z,-1.67
2024-02-06T11:55:47.170Z,-1.63
2024-02-06T11:58:17.181Z,-1.54
2024-02-06T12:00:44.720Z,-1.36
2024-02-06T12:03:14.140Z,-1.27
2024-02-06T12:05:44.020Z,-1.19
2024-02-06T12:08:22.135Z,-1.07
2024-02-06T12:10:50.652Z,-0.97
2024-02-06T12:13:23.404Z,-0.82
2024-02-06T12:15:51.920Z,-0.67
2024-02-06T12:18:21.448Z,-0.54
2024-02-06T12:20:50.511Z,-0.39
2024-02-06T12:23:18.464Z,-0.30
2024-02-06T12:25:49.760Z,-0.31
2024-02-06T12:28:17.895Z,-0.46
2024-02-06T12:30:50.758Z,-0.61
2024-02-06T12:33:19.561Z,-0.74
2024-02-06T12:35:48.211Z,-0.93
2024-02-06T12:38:15.698Z,-1.04
2024-02-06T12:40:44.670Z,-1.07
2024-02-06T12:43:13.600Z,-1.11
2024-02-06T12:45:43.107Z,-1.10
2024-02-06T12:48:13.272Z,-1.19
2024-02-06T12:50:42.843Z,-1.23
2024-02-06T12:53:10.603Z,-1.35
2024-02-06T12:55:41.261Z,-1.36
2024-02-06T12:58:09.051Z,-1.43
2024-02-06T13:00:36.672Z,-1.48
2024-02-06T13:03:05.526Z,-1.57
2024-02-06T13:05:36.056Z,-1.66
2024-02-06T13:08:05.629Z,-1.69
2024-02-06T13:10:33.355Z,-1.76
2024-02-06T13:13:05.257Z,-1.79
2024-02-06T13:15:37.248Z,-1.79
2024-02-06T13:18:06.177Z,-1.82
2024-02-06T13:20:41.330Z,-1.89
2024-02-06T13:23:10.289Z,-1.95
2024-02-06T13:25:38.616Z,-1.98
2024-02-06T13:28:07.326Z,-2.09
2024-02-06T13:30:36.840Z,-2.17
2024-02-06T13:33:06.018Z,-2.24
2024-02-06T13:35:33.411Z,-2.25
2024-02-06T13:38:03.061Z,-2.27
2024-02-06T13:40:31.101Z,-2.33
2024-02-06T13:42:59.970Z,-2.40
2024-02-06T13:45:27.732Z,-2.54
2024-02-06T13:47:55.635Z,-2.65
2024-02-06T13:50:23.538Z,-2.71
2024-02-06T13:52:51.308Z,-2.74
2024-02-06T13:55:21.827Z,-2.72
2024-02-06T13:57:49.247Z,-2.74
2024-02-06T14:00:17.002Z,-2.73
2024-02-06T14:02:44.684Z,-2.75
2024-02-06T14:05:12.579Z,-2.77
2024-02-06T14:07:40.559Z,-2.76
2024-02-06T14:10:09.049Z,-2.76
2024-02-06T14:12:44.624Z,-2.79
2024-02-06T14:15:17.548Z,-2.81
2024-02-06T14:17:46.857Z,-2.83
2024-02-06T14:20:17.021Z,-2.92
2024-02-06T14:22:45.785Z,-2.86
2024-02-06T14:25:13.778Z,-2.91
2024-02-06T14:27:42.651Z,-2.90
2024-02-06T14:30:10.668Z,-2.92
2024-02-06T14:32:38.117Z,-2.93
2024-02-06T14:35:06.359Z,-2.93
2024-02-06T14:37:33.967Z,-2.94
2024-02-06T14:40:01.791Z,-2.89
2024-02-06T14:42:32.491Z,-2.87
2024-02-06T14:45:01.254Z,-2.88
2024-02-06T14:47:31.594Z,-2.93
2024-02-06T14:49:58.980Z,-2.94
2024-02-06T14:52:26.397Z,-2.93
2024-02-06T14:54:53.857Z,-2.89
2024-02-06T14:57:21.641Z,-2.88
2024-02-06T14:59:49.763Z,-2.84
2024-02-06T15:02:18.457Z,-2.84
2024-02-06T15:04:45.880Z,-2.86
2024-02-06T15:07:13.751Z,-2.85
2024-02-06T15:09:41.485Z,-2.86
2024-02-06T15:12:08.927Z,-2.84
2024-02-06T15:14:36.213Z,-2.83
2024-02-06T15:17:04.697Z,-2.82
2024-02-06T15:19:33.458Z,-2.81
2024-02-06T15:22:00.963Z,-2.81
2024-02-06T15:24:28.760Z,-2.83
2024-02-06T15:27:03.086Z,-2.90
2024-02-06T15:29:30.409Z,-2.91
2024-02-06T15:31:58.034Z,-2.97
2024-02-06T15:34:27.130Z,-3.02
2024-02-06T15:36:57.292Z,-3.03
2024-02-06T15:39:24.724Z,-3.05
2024-02-06T15:41:52.155Z,-3.05
2024-02-06T15:44:19.776Z,-3.05
2024-02-06T15:46:48.191Z,-3.07
2024-02-06T15:49:15.926Z,-3.09
2024-02-06T15:51:44.974Z,-3.04
2024-02-06T15:54:16.821Z,-3.04
2024-02-06T15:56:44.080Z,-3.05
2024-02-06T15:59:11.420Z,-3.07
2024-02-06T16:01:45.969Z,-3.10
2024-02-06T16:04:13.385Z,-3.09
2024-02-06T16:06:40.894Z,-3.11
2024-02-06T16:09:08.370Z,-3.12
2024-02-06T16:11:47.928Z,-3.16
2024-02-06T16:14:15.608Z,-3.19
2024-02-06T16:16:43.199Z,-3.25
2024-02-06T16:19:19.138Z,-3.27
2024-02-06T16:21:56.875Z,-3.32
2024-02-06T16:24:24.492Z,-3.34
2024-02-06T16:26:55.283Z,-3.36
2024-02-06T16:29:23.864Z,-3.43
2024-02-06T16:31:51.701Z,-3.45
2024-02-06T16:34:21.734Z,-3.43
2024-02-06T16:36:51.319Z,-3.46
2024-02-06T16:39:22.591Z,-3.50
2024-02-06T16:41:50.389Z,-3.55
2024-02-06T16:44:20.445Z,-3.57
2024-02-06T16:46:48.540Z,-3.59
2024-02-06T16:49:16.870Z,-3.58
2024-02-06T16:51:44.664Z,-3.59
2024-02-06T16:54:11.983Z,-3.59
2024-02-06T16:56:39.766Z,-3.57
2024-02-06T16:59:07.290Z,-3.55
2024-02-06T17:01:36.094Z,-3.57
2024-02-06T17:04:03.689Z,-3.54
2024-02-06T17:06:31.193Z,-3.50
2024-02-06T17:08:58.486Z,-3.46
2024-02-06T17:11:26.600Z,-3.42
2024-02-06T17:13:54.296Z,-3.39
2024-02-06T17:16:21.640Z,-3.33
2024-02-06T17:18:50.306Z,-3.31
2024-02-06T17:21:17.756Z,-3.30
2024-02-06T17:23:47.115Z,-3.32
2024-02-06T17:26:14.928Z,-3.35
2024-02-06T17:28:42.596Z,-3.40
2024-02-06T17:31:10.016Z,-3.43
2024-02-06T17:33:37.650Z,-3.43
2024-02-06T17:36:07.463Z,-3.44
2024-02-06T17:38:34.849Z,-3.50
2024-02-06T17:41:02.621Z,-3.53
2024-02-06T17:43:30.088Z,-3.53
2024-02-06T17:45:57.605Z,-3.55
2024-02-06T17:48:24.979Z,-3.54
2024-02-06T17:50:52.388Z,-3.56
2024-02-06T17:53:21.309Z,-3.57
2024-02-06T17:55:48.827Z,-3.58
2024-02-06T17:58:16.416Z,-3.58
2024-02-06T18:00:54.028Z,-3.53
2024-02-06T18:03:21.551Z,-3.54
2024-02-06T18:05:48.882Z,-3.54
2024-02-06T18:08:16.253Z,-3.53
2024-02-06T18:10:45.226Z,-3.51
2024-02-06T18:13:13.085Z,-3.50
2024-02-06T18:15:40.849Z,-3.52
2024-02-06T18:18:08.942Z,-3.54
2024-02-06T18:20:36.491Z,-3.57
2024-02-06T18:23:04.153Z,-3.62
2024-02-06T18:25:31.519Z,-3.67
2024-02-06T18:28:00.468Z,-3.69
2024-02-06T18:30:28.235Z,-3.69
2024-02-06T18:32:55.721Z,-3.74
2024-02-06T18:35:23.181Z,-3.73
2024-02-06T18:37:50.727Z,-3.73
2024-02-06T18:40:18.306Z,-3.75
2024-02-06T18:42:46.054Z,-3.75
2024-02-06T18:45:15.166Z,-3.77
2024-02-06T18:47:43.013Z,-3.76
2024-02-06T18:50:10.931Z,-3.73
2024-02-06T18:52:39.874Z,-3.71
2024-02-06T18:55:10.405Z,-3.68
2024-02-06T18:57:39.647Z,-3.66
2024-02-06T19:00:09.152Z,-3.61
2024-02-06T19:02:38.314Z,-3.63
2024-02-06T19:05:06.418Z,-3.58
2024-02-06T19:07:34.124Z,-3.55
2024-02-06T19:10:03.047Z,-3.58
2024-02-06T19:12:32.193Z,-3.57
2024-02-06T19:14:59.467Z,-3.62
2024-02-06T19:17:29.152Z,-3.59
2024-02-06T19:19:58.584Z,-3.56
2024-02-06T19:22:27.586Z,-3.55
2024-02-06T19:24:55.037Z,-3.58
2024-02-06T19:27:22.695Z,-3.60
2024-02-06T19:29:49.970Z,-3.59
2024-02-06T19:32:17.508Z,-3.52
2024-02-06T19:34:44.842Z,-3.45
2024-02-06T19:37:13.642Z,-3.43
2024-02-06T19:39:40.935Z,-3.42
2024-02-06T19:42:08.280Z,-3.38
2024-02-06T19:44:37.048Z,-3.35
2024-02-06T19:47:05.196Z,-3.36
2024-02-06T19:49:32.796Z,-3.34
2024-02-06T19:52:00.884Z,-3.35
2024-02-06T19:54:29.883Z,-3.40
2024-02-06T19:56:57.294Z,-3.45
2024-02-06T19:59:24.741Z,-3.49
2024-02-06T20:01:53.313Z,-3.54
2024-02-06T20:04:20.877Z,-3.51
2024-02-06T20:06:48.287Z,-3.44
2024-02-06T20:09:16.316Z,-3.38
2024-02-06T20:11:47.550Z,-3.31
2024-02-06T20:14:15.220Z,-3.27
2024-02-06T20:16:46.463Z,-3.27
2024-02-06T20:19:13.936Z,-3.26
2024-02-06T20:21:41.752Z,-3.25
2024-02-06T20:24:09.662Z,-3.23
2024-02-06T20:26:38.112Z,-3.24
2024-02-06T20:29:07.147Z,-3.33
2024-02-06T20:31:34.592Z,-3.42
2024-02-06T20:34:02.593Z,-3.53
2024-02-06T20:36:30.081Z,-3.61
2024-02-06T20:38:57.529Z,-3.70
2024-02-06T20:41:24.840Z,-3.73
2024-02-06T20:43:52.599Z,-3.74
2024-02-06T20:46:21.849Z,-3.78
2024-02-06T20:48:49.448Z,-3.81
2024-02-06T20:51:16.877Z,-3.87
2024-02-06T20:53:46.568Z,-3.97
2024-02-06T20:56:14.408Z,-4.02
2024-02-06T20:58:41.898Z,-4.02
2024-02-06T21:01:13.074Z,-4.01
2024-02-06T21:03:42.465Z,-4.00
2024-02-06T21:06:10.534Z,-4.01
2024-02-06T21:08:37.800Z,-4.01
2024-02-06T21:11:05.310Z,-4.03
2024-02-06T21:13:36.241Z,-4.05
2024-02-06T21:16:05.846Z,-4.14
2024-02-06T21:18:33.317Z,-4.18
2024-02-06T21:21:02.088Z,-4.23
2024-02-06T21:23:33.268Z,-4.30
2024-02-06T21:26:05.220Z,-4.34
2024-02-06T21:28:34.213Z,-4.40
2024-02-06T21:31:02.050Z,-4.43
2024-02-06T21:33:34.204Z,-4.50
2024-02-06T21:36:04.308Z,-4.53
2024-02-06T21:38:31.914Z,-4.62
2024-02-06T21:41:01.310Z,-4.72
2024-02-06T21:43:33.235Z,-4.75
2024-02-06T21:46:02.312Z,-4.76
2024-02-06T21:48:29.965Z,-4.79
2024-02-06T21:50:57.393Z,-4.81
2024-02-06T21:53:26.611Z,-4.71
2024-02-06T21:55:59.228Z,-4.71
2024-02-06T21:58:32.368Z,-4.72
2024-02-06T22:00:59.681Z,-4.76
2024-02-06T22:03:27.353Z,-4.78
2024-02-06T22:05:54.881Z,-4.80
2024-02-06T22:08:22.400Z,-4.78
2024-02-06T22:10:58.849Z,-4.83
2024-02-06T22:13:26.381Z,-4.75
2024-02-06T22:15:54.129Z,-4.72
2024-02-06T22:18:21.516Z,-4.66
2024-02-06T22:20:49.255Z,-4.64
2024-02-06T22:23:17.508Z,-4.67
2024-02-06T22:25:44.738Z,-4.73
2024-02-06T22:28:14.037Z,-4.76
2024-02-06T22:30:42.457Z,-4.78
2024-02-06T22:33:09.845Z,-4.83
2024-02-06T22:35:37.327Z,-4.92
2024-02-06T22:38:04.751Z,-4.99
2024-02-06T22:40:32.271Z,-5.03
2024-02-06T22:42:59.502Z,-5.08
2024-02-06T22:45:28.074Z,-5.09
2024-02-06T22:47:55.461Z,-5.11
2024-02-06T22:50:23.693Z,-5.12
2024-02-06T22:52:51.581Z,-5.15
2024-02-06T22:55:19.131Z,-5.17
2024-02-06T22:57:46.507Z,-5.20
2024-02-06T23:00:29.774Z,-5.22
2024-02-06T23:03:00.928Z,-5.24
2024-02-06T23:05:28.328Z,-5.25
2024-02-06T23:07:57.053Z,-5.25
2024-02-06T23:10:25.114Z,-5.30
2024-02-06T23:12:52.823Z,-5.38
2024-02-06T23:15:21.875Z,-5.40
2024-02-06T23:17:50.036Z,-5.47
2024-02-06T23:20:19.262Z,-5.53
2024-02-06T23:22:46.749Z,-5.58
2024-02-06T23:25:14.259Z,-5.70
2024-02-06T23:27:41.502Z,-5.72
2024-02-06T23:30:09.929Z,-5.77
2024-02-06T23:32:37.399Z,-5.82
2024-02-06T23:35:06.602Z,-5.87
2024-02-06T23:37:35.672Z,-5.94
2024-02-06T23:40:05.123Z,-6.02
2024-02-06T23:42:32.684Z,-6.07
2024-02-06T23:44:59.942Z,-6.14
2024-02-06T23:47:27.450Z,-6.15
2024-02-06T23:49:57.819Z,-6.17
2024-02-06T23:52:27.456Z,-6.16
2024-02-06T23:54:56.514Z,-6.18
2024-02-06T23:57:23.716Z,-6.21
2024-02-06T23:59:51.119Z,-6.31
